Time;durP1;ratioP1;P1;durP2;ratioP2;P2;SDS_P1;SDS_P2;PMS_P1;PMS_P2;Temp;Humidity;BMP_temperature;BMP_pressure;BME280_temperature;BME280_humidity;BME280_pressure;Samples;Min_cycle;Max_cycle;Signal;HPM_P1;HPM_P2
2022/03/22 00:00:09;;;;;;;47.27;29.80;;;6.00;99.90;;;;;;4830368;29;20056;-83
2022/03/22 00:02:36;;;;;;;47.67;27.53;;;5.90;99.90;;;;;;4827328;29;20051;-83
2022/03/22 00:05:02;;;;;;;48.53;28.23;;;5.90;99.90;;;;;;4826276;29;20498;-84
2022/03/22 00:07:28;;;;;;;46.27;27.93;;;5.90;99.90;;;;;;4846449;29;20038;-83
2022/03/22 00:09:54;;;;;;;47.07;27.57;;;5.80;99.90;;;;;;4813880;29;20074;-83
2022/03/22 00:12:20;;;;;;;50.00;28.30;;;5.90;99.90;;;;;;4817853;29;20052;-84
2022/03/22 00:14:46;;;;;;;50.93;29.63;;;5.90;99.90;;;;;;4812136;29;20132;-83
2022/03/22 00:17:12;;;;;;;49.53;29.77;;;5.80;99.90;;;;;;4828846;29;20077;-83
2022/03/22 00:19:38;;;;;;;49.63;29.03;;;5.80;99.90;;;;;;4814991;29;20046;-83
2022/03/22 00:22:04;;;;;;;49.13;28.97;;;5.80;99.90;;;;;;4820619;29;20407;-83
2022/03/22 00:24:30;;;;;;;53.03;28.87;;;5.70;99.90;;;;;;4824171;29;20061;-83
2022/03/22 00:26:56;;;;;;;47.20;27.27;;;5.70;99.90;;;;;;4812553;29;20054;-84
2022/03/22 00:29:22;;;;;;;48.23;29.47;;;5.70;99.90;;;;;;4842841;29;20472;-83
2022/03/22 00:31:48;;;;;;;53.00;30.73;;;5.70;99.90;;;;;;4802024;29;20042;-84
2022/03/22 00:34:14;;;;;;;54.17;30.20;;;5.70;99.90;;;;;;4819297;29;20050;-84
2022/03/22 00:36:45;;;;;;;52.57;29.30;;;5.70;99.90;;;;;;4804524;29;20058;-83
2022/03/22 00:39:11;;;;;;;47.50;28.43;;;5.70;99.90;;;;;;4831408;29;20081;-83
2022/03/22 00:41:37;;;;;;;48.43;29.03;;;5.70;99.90;;;;;;4811554;29;20110;-83
2022/03/22 00:44:03;;;;;;;56.87;31.67;;;5.60;99.90;;;;;;4810585;29;20042;-83
2022/03/22 00:46:29;;;;;;;56.93;31.87;;;5.60;99.90;;;;;;4812284;29;20038;-83
2022/03/22 00:48:55;;;;;;;53.90;30.90;;;5.70;99.90;;;;;;4811105;29;20049;-83
2022/03/22 00:51:23;;;;;;;53.80;30.27;;;5.60;99.90;;;;;;4827193;29;20403;-83
2022/03/22 00:53:51;;;;;;;53.37;31.10;;;5.60;99.90;;;;;;4823752;29;20093;-84
2022/03/22 00:56:18;;;;;;;55.80;31.53;;;5.60;99.90;;;;;;4815773;29;20069;-83
2022/03/22 00:58:43;;;;;;;55.60;31.60;;;5.60;99.90;;;;;;4811180;29;20050;-83
2022/03/22 01:01:09;;;;;;;60.33;33.13;;;5.60;99.90;;;;;;4807456;29;20054;-83
2022/03/22 01:03:35;;;;;;;53.07;31.33;;;5.50;99.90;;;;;;4799174;29;20123;-83
2022/03/22 01:06:01;;;;;;;50.63;30.67;;;5.50;99.90;;;;;;4805969;29;20120;-83
2022/03/22 01:08:30;;;;;;;53.37;30.50;;;5.50;99.90;;;;;;4800131;29;20583;-84
2022/03/22 01:10:56;;;;;;;49.63;29.47;;;5.50;99.90;;;;;;4805113;29;20052;-83
2022/03/22 01:13:24;;;;;;;55.57;32.13;;;5.50;99.90;;;;;;4800355;29;20050;-83
2022/03/22 01:15:51;;;;;;;54.33;31.43;;;5.50;99.90;;;;;;4807487;29;20053;-83
2022/03/22 01:18:16;;;;;;;58.30;34.13;;;5.50;99.90;;;;;;4792733;29;20395;-83
2022/03/22 01:20:47;;;;;;;59.93;33.57;;;5.50;99.90;;;;;;4796011;29;20050;-83
2022/03/22 01:23:15;;;;;;;53.47;31.67;;;5.50;99.90;;;;;;4802554;29;20477;-83
2022/03/22 01:25:43;;;;;;;57.00;31.90;;;5.50;99.90;;;;;;4810541;29;20045;-83
2022/03/22 01:28:11;;;;;;;57.43;32.70;;;5.50;99.90;;;;;;4822521;29;20073;-83
2022/03/22 01:30:37;;;;;;;55.17;33.07;;;5.50;99.90;;;;;;4804202;29;20355;-83
2022/03/22 01:33:04;;;;;;;51.70;32.17;;;5.50;99.90;;;;;;4817046;29;20054;-84
2022/03/22 01:35:30;;;;;;;65.60;36.17;;;5.40;99.90;;;;;;4801596;29;20046;-83
2022/03/22 01:37:57;;;;;;;54.00;29.93;;;5.50;99.90;;;;;;4808071;29;20391;-83
2022/03/22 01:40:25;;;;;;;58.90;33.07;;;5.40;99.90;;;;;;4823287;29;20038;-84
2022/03/22 01:42:51;;;;;;;52.20;30.73;;;5.40;99.90;;;;;;4840270;29;20045;-83
2022/03/22 01:45:17;;;;;;;56.13;32.67;;;5.50;99.90;;;;;;4810522;29;20182;-83
2022/03/22 01:47:45;;;;;;;63.23;35.60;;;5.50;99.90;;;;;;4793557;29;20524;-83
2022/03/22 01:50:14;;;;;;;58.30;31.07;;;5.50;99.90;;;;;;4807085;29;20057;-84
2022/03/22 01:52:42;;;;;;;51.57;29.53;;;5.50;99.90;;;;;;4794714;29;20053;-83
2022/03/22 01:55:11;;;;;;;55.90;32.70;;;5.50;99.90;;;;;;4810077;29;20049;-83
2022/03/22 01:57:37;;;;;;;54.20;32.00;;;5.50;99.90;;;;;;4809685;29;20070;-83
2022/03/22 02:00:06;;;;;;;55.20;33.50;;;5.40;99.90;;;;;;4810515;29;20045;-83
2022/03/22 02:08:08;;;;;;;55.07;33.87;;;5.40;99.90;;;;;;4828036;29;20050;-83
2022/03/22 02:10:34;;;;;;;56.37;32.80;;;5.50;99.90;;;;;;4825479;29;20042;-83
2022/03/22 02:13:01;;;;;;;58.10;32.90;;;5.40;99.90;;;;;;4810192;29;20080;-84
2022/03/22 02:15:27;;;;;;;63.17;33.67;;;5.40;99.90;;;;;;4808021;29;20052;-84
2022/03/22 02:17:53;;;;;;;58.63;34.40;;;5.30;99.90;;;;;;4825268;29;20421;-83
2022/03/22 02:20:18;;;;;;;65.77;36.63;;;5.30;99.90;;;;;;4833626;29;20085;-83
2022/03/22 02:22:52;;;;;;;54.30;32.17;;;5.40;99.90;;;;;;4793479;29;20073;-83
2022/03/22 02:25:19;;;;;;;51.60;31.23;;;5.40;99.90;;;;;;4805586;29;20526;-83
2022/03/22 02:27:53;;;;;;;57.03;32.33;;;5.20;99.90;;;;;;4806734;29;20057;-83
2022/03/22 02:30:20;;;;;;;59.83;33.53;;;5.30;99.90;;;;;;4810036;29;20049;-83
2022/03/22 02:32:54;;;;;;;56.03;32.80;;;5.20;99.90;;;;;;4809888;29;20057;-83
2022/03/22 02:35:21;;;;;;;60.70;35.57;;;5.20;99.90;;;;;;4809497;29;20287;-83
2022/03/22 02:37:47;;;;;;;64.30;36.40;;;5.20;99.90;;;;;;4809559;29;20056;-83
2022/03/22 02:40:14;;;;;;;63.47;34.83;;;5.30;99.90;;;;;;4809883;29;20132;-83
2022/03/22 02:42:51;;;;;;;60.67;35.57;;;5.30;99.90;;;;;;4808817;29;20106;-83
2022/03/22 02:45:18;;;;;;;61.83;34.97;;;5.30;99.90;;;;;;4825142;29;20132;-83
2022/03/22 02:47:44;;;;;;;57.40;34.73;;;5.30;99.90;;;;;;4810070;29;20049;-83
2022/03/22 02:50:11;;;;;;;55.80;33.27;;;5.30;99.90;;;;;;4815827;29;20046;-83
2022/03/22 02:52:38;;;;;;;57.47;35.13;;;5.30;99.90;;;;;;4824501;29;20054;-83
2022/03/22 02:55:06;;;;;;;64.23;35.47;;;5.30;99.90;;;;;;4809589;29;20050;-84
2022/03/22 02:57:37;;;;;;;56.30;33.37;;;5.30;99.90;;;;;;4817016;29;20142;-83
2022/03/22 03:00:06;;;;;;;63.83;35.13;;;5.30;99.90;;;;;;4806388;29;20059;-83
2022/03/22 03:02:32;;;;;;;60.73;34.60;;;5.30;99.90;;;;;;4824738;29;20050;-83
2022/03/22 03:04:58;;;;;;;64.63;35.83;;;5.30;99.90;;;;;;4806619;29;20510;-83
2022/03/22 03:07:24;;;;;;;58.50;34.03;;;5.40;99.90;;;;;;4797149;29;20510;-83
2022/03/22 03:09:50;;;;;;;60.73;35.03;;;5.40;99.90;;;;;;4809685;29;20053;-83
2022/03/22 03:12:16;;;;;;;57.47;33.33;;;5.40;99.90;;;;;;4830993;29;20042;-83
2022/03/22 03:14:43;;;;;;;55.33;33.70;;;5.40;99.90;;;;;;4806112;29;20464;-83
2022/03/22 03:17:13;;;;;;;58.07;34.33;;;5.40;99.90;;;;;;4800533;29;20130;-83
2022/03/22 03:19:40;;;;;;;58.43;34.20;;;5.40;99.90;;;;;;4803717;29;20375;-83
2022/03/22 03:22:06;;;;;;;52.90;31.60;;;5.50;99.90;;;;;;4825018;29;20053;-84
2022/03/22 03:24:32;;;;;;;59.10;34.43;;;5.40;99.90;;;;;;4824264;29;20042;-83
2022/03/22 03:26:59;;;;;;;54.93;33.30;;;5.40;99.90;;;;;;4824031;29;20556;-83
2022/03/22 03:29:25;;;;;;;56.07;33.10;;;5.40;99.90;;;;;;4808620;29;20050;-83
2022/03/22 03:31:51;;;;;;;53.53;32.83;;;5.30;99.90;;;;;;4794127;29;20046;-83
2022/03/22 03:34:18;;;;;;;57.93;34.03;;;5.30;99.90;;;;;;4820908;29;20111;-83
2022/03/22 03:36:44;;;;;;;62.70;35.10;;;5.30;99.90;;;;;;4801051;29;20050;-84
2022/03/22 03:39:11;;;;;;;60.07;35.53;;;5.30;99.90;;;;;;4808904;29;20056;-83
2022/03/22 03:47:16;;;;;;;57.43;33.10;;;5.40;99.90;;;;;;4827299;29;20479;-83
2022/03/22 03:49:47;;;;;;;52.37;31.93;;;5.30;99.90;;;;;;4827961;29;20402;-83
2022/03/22 03:52:18;;;;;;;55.97;34.13;;;5.40;99.90;;;;;;4810178;29;20070;-83
2022/03/22 03:54:45;;;;;;;63.63;34.63;;;5.30;99.90;;;;;;4814751;29;20049;-83
2022/03/22 03:57:12;;;;;;;59.17;34.43;;;5.30;99.90;;;;;;4812707;29;20106;-83
2022/03/22 03:59:39;;;;;;;58.10;33.33;;;5.30;99.90;;;;;;4811286;29;20042;-83
2022/03/22 04:02:06;;;;;;;58.23;33.53;;;5.30;99.90;;;;;;4812603;29;20046;-83
2022/03/22 04:04:34;;;;;;;62.47;34.77;;;5.30;99.90;;;;;;4830306;29;20050;-83
2022/03/22 04:07:00;;;;;;;58.50;34.27;;;5.20;99.90;;;;;;4812670;29;20053;-83
2022/03/22 04:09:25;;;;;;;55.90;34.33;;;5.20;99.90;;;;;;4797522;29;20441;-83
2022/03/22 04:11:51;;;;;;;60.13;34.00;;;5.20;99.90;;;;;;4812336;29;20053;-83
2022/03/22 04:14:17;;;;;;;60.53;35.53;;;5.10;99.90;;;;;;4808894;29;20042;-83
2022/03/22 04:16:43;;;;;;;55.80;33.27;;;5.10;99.90;;;;;;4781567;29;20046;-83
2022/03/22 04:19:09;;;;;;;61.13;35.40;;;5.10;99.90;;;;;;4826774;29;20049;-83
2022/03/22 04:21:35;;;;;;;58.20;33.93;;;5.10;99.90;;;;;;4810668;29;20055;-83
2022/03/22 04:24:19;;;;;;;60.07;35.63;;;5.10;99.90;;;;;;4811295;29;20094;-83
2022/03/22 04:26:46;;;;;;;56.43;33.63;;;5.10;99.90;;;;;;4816024;29;20046;-83
2022/03/22 04:34:45;;;;;;;55.53;33.47;;;5.10;99.90;;;;;;4813981;29;20054;-83
2022/03/22 04:37:13;;;;;;;57.53;33.07;;;5.10;99.90;;;;;;4826826;29;20042;-83
2022/03/22 04:39:44;;;;;;;58.47;35.27;;;5.00;99.90;;;;;;4811535;29;20044;-83
2022/03/22 04:42:11;;;;;;;55.25;34.03;;;5.10;99.90;;;;;;4811262;29;20050;-83
2022/03/22 04:44:37;;;;;;;60.30;34.00;;;5.10;99.90;;;;;;4826078;29;20132;-83
2022/03/22 04:47:03;;;;;;;55.50;33.33;;;5.10;99.90;;;;;;4822666;29;20053;-83
2022/03/22 04:49:29;;;;;;;58.03;33.00;;;5.10;99.90;;;;;;4824067;29;20081;-83
2022/03/22 04:57:26;;;;;;;54.57;31.10;;;5.10;99.90;;;;;;4825912;29;20062;-83
2022/03/22 04:59:52;;;;;;;52.40;33.07;;;5.10;99.90;;;;;;4811229;29;20049;-83
2022/03/22 05:02:18;;;;;;;53.57;32.30;;;5.00;99.90;;;;;;4810945;29;20042;-83
2022/03/22 05:04:44;;;;;;;61.03;35.23;;;5.00;99.90;;;;;;4811152;29;20403;-83
2022/03/22 05:07:10;;;;;;;55.03;33.93;;;5.00;99.90;;;;;;4838881;29;20049;-83
2022/03/22 05:09:36;;;;;;;56.53;33.33;;;5.00;99.90;;;;;;4837200;29;20045;-83
2022/03/22 05:12:02;;;;;;;58.00;34.57;;;5.00;99.90;;;;;;4795600;29;20450;-83
2022/03/22 05:14:28;;;;;;;58.70;32.63;;;5.00;99.90;;;;;;4809541;29;20046;-83
2022/03/22 05:16:58;;;;;;;57.77;32.57;;;5.00;99.90;;;;;;4817023;29;20042;-83
2022/03/22 05:19:25;;;;;;;59.33;32.33;;;5.00;99.90;;;;;;4808594;29;20049;-83
2022/03/22 05:21:51;;;;;;;59.27;33.67;;;5.00;99.90;;;;;;4792883;29;20069;-83
2022/03/22 05:24:17;;;;;;;56.77;33.17;;;5.00;99.90;;;;;;4778091;29;20151;-83
2022/03/22 05:26:45;;;;;;;59.80;34.70;;;4.90;99.90;;;;;;4795811;29;20050;-83
2022/03/22 05:29:13;;;;;;;53.17;32.13;;;4.90;99.90;;;;;;4793212;29;20046;-83
2022/03/22 05:31:39;;;;;;;53.80;31.73;;;4.90;99.90;;;;;;4812153;29;20046;-83
2022/03/22 05:34:05;;;;;;;58.93;34.30;;;4.90;99.90;;;;;;4825302;29;20058;-83
2022/03/22 05:36:31;;;;;;;59.87;34.07;;;4.80;99.90;;;;;;4809983;29;20042;-83
2022/03/22 05:38:57;;;;;;;55.90;31.83;;;4.80;99.90;;;;;;4792247;29;20058;-83
2022/03/22 05:41:23;;;;;;;62.23;35.20;;;4.70;99.90;;;;;;4793465;29;20045;-83
2022/03/22 05:43:49;;;;;;;55.43;33.17;;;4.80;99.90;;;;;;4810569;29;20411;-83
2022/03/22 05:46:16;;;;;;;53.20;32.73;;;4.80;99.90;;;;;;4810505;29;20061;-83
2022/03/22 05:48:44;;;;;;;55.20;33.63;;;4.70;99.90;;;;;;4809248;29;20072;-83
2022/03/22 05:51:10;;;;;;;56.87;32.70;;;4.70;99.90;;;;;;4799996;29;20077;-83
2022/03/22 05:53:37;;;;;;;48.70;30.70;;;4.70;99.90;;;;;;4810698;29;20038;-83
2022/03/22 05:56:03;;;;;;;52.40;34.17;;;4.70;99.90;;;;;;4819939;29;20104;-83
2022/03/22 05:58:29;;;;;;;54.97;34.07;;;4.70;99.90;;;;;;4809723;29;20046;-83
2022/03/22 06:00:55;;;;;;;56.77;33.30;;;4.60;99.90;;;;;;4826482;29;20426;-83
2022/03/22 06:03:21;;;;;;;59.17;33.83;;;4.60;99.90;;;;;;4825332;29;20046;-83
2022/03/22 06:05:49;;;;;;;61.20;35.20;;;4.60;99.90;;;;;;4825088;29;20058;-83
2022/03/22 06:08:15;;;;;;;53.80;31.07;;;4.60;99.90;;;;;;4807560;29;20047;-83
2022/03/22 06:10:41;;;;;;;55.20;31.13;;;4.60;99.90;;;;;;4792048;29;20046;-83
2022/03/22 06:13:10;;;;;;;55.57;33.17;;;4.60;99.90;;;;;;4807174;29;20046;-83
2022/03/22 06:15:35;;;;;;;55.20;33.83;;;4.70;99.90;;;;;;4824484;29;20038;-83
2022/03/22 06:18:06;;;;;;;57.00;33.20;;;4.70;99.90;;;;;;4814583;29;20109;-84
2022/03/22 06:20:34;;;;;;;57.27;32.80;;;4.70;99.90;;;;;;4817501;29;20049;-83
2022/03/22 06:23:01;;;;;;;60.10;34.60;;;4.80;99.90;;;;;;4806211;29;20614;-84
2022/03/22 06:25:28;;;;;;;53.67;31.73;;;4.80;99.90;;;;;;4817962;29;20525;-84
2022/03/22 06:27:55;;;;;;;54.33;31.23;;;4.80;99.90;;;;;;4809520;29;20105;-84
2022/03/22 06:30:22;;;;;;;57.87;33.33;;;4.80;99.90;;;;;;4822552;29;20167;-84
2022/03/22 06:32:53;;;;;;;57.23;33.77;;;4.90;99.90;;;;;;4810460;29;20049;-84
2022/03/22 06:35:21;;;;;;;57.78;33.85;;;4.90;99.90;;;;;;4805397;29;20795;-84
2022/03/22 06:37:48;;;;;;;66.10;35.00;;;5.00;99.90;;;;;;4819843;29;20566;-83
2022/03/22 06:40:16;;;;;;;57.73;34.70;;;5.00;99.90;;;;;;4811291;29;20030;-83
2022/03/22 06:42:42;;;;;;;58.60;33.43;;;5.10;99.90;;;;;;4811205;29;20101;-83
2022/03/22 06:45:10;;;;;;;55.73;33.83;;;5.10;99.90;;;;;;4825898;29;20080;-83
2022/03/22 06:47:37;;;;;;;58.47;35.17;;;5.20;99.90;;;;;;4793088;29;20760;-83
2022/03/22 06:50:03;;;;;;;62.43;35.77;;;5.30;99.90;;;;;;4784641;29;20045;-83
2022/03/22 06:52:29;;;;;;;59.67;35.20;;;5.40;99.90;;;;;;4809316;29;20105;-83
2022/03/22 06:54:55;;;;;;;55.60;34.30;;;5.50;99.90;;;;;;4837019;29;20116;-83
2022/03/22 06:57:21;;;;;;;62.87;34.53;;;5.60;99.90;;;;;;4796713;29;20199;-83
2022/03/22 06:59:47;;;;;;;55.97;32.87;;;5.70;99.90;;;;;;4793535;29;20049;-83
2022/03/22 07:02:13;;;;;;;58.07;34.93;;;5.80;99.90;;;;;;4809222;29;20046;-82
2022/03/22 07:04:38;;;;;;;55.47;32.63;;;5.80;99.90;;;;;;4787731;29;20049;-83
2022/03/22 07:07:04;;;;;;;58.73;34.40;;;6.00;99.90;;;;;;4815197;29;20060;-84
2022/03/22 07:09:30;;;;;;;53.70;33.07;;;6.10;99.90;;;;;;4799853;29;20046;-83
2022/03/22 07:11:56;;;;;;;58.67;33.63;;;6.20;99.90;;;;;;4787576;29;20056;-84
2022/03/22 07:14:27;;;;;;;61.93;35.03;;;6.30;99.90;;;;;;4811586;29;20046;-84
2022/03/22 07:16:54;;;;;;;56.70;34.17;;;6.40;99.90;;;;;;4810473;29;20046;-84
2022/03/22 07:19:22;;;;;;;55.97;34.57;;;6.50;99.90;;;;;;4794979;29;20053;-84
2022/03/22 07:21:48;;;;;;;58.17;32.97;;;6.60;99.90;;;;;;4843286;29;20125;-84
2022/03/22 07:24:18;;;;;;;58.57;33.73;;;6.70;99.90;;;;;;4824985;29;20042;-84
2022/03/22 07:26:45;;;;;;;58.30;32.97;;;6.80;99.90;;;;;;4803602;29;20119;-84
2022/03/22 07:29:11;;;;;;;60.07;34.20;;;7.00;99.90;;;;;;4824904;29;20479;-84
2022/03/22 07:31:40;;;;;;;61.97;34.37;;;7.10;99.90;;;;;;4814452;29;20061;-84
2022/03/22 07:34:11;;;;;;;63.27;36.83;;;7.20;99.90;;;;;;4818761;29;20069;-84
2022/03/22 07:36:40;;;;;;;59.40;33.90;;;7.30;99.90;;;;;;4795700;29;20050;-83
2022/03/22 07:39:07;;;;;;;57.40;34.07;;;7.40;99.90;;;;;;4797305;29;20129;-83
2022/03/22 07:41:34;;;;;;;61.87;34.47;;;7.50;99.90;;;;;;4809645;29;20130;-83
2022/03/22 07:44:01;;;;;;;59.37;33.63;;;7.70;99.90;;;;;;4828264;29;20056;-83
2022/03/22 07:46:28;;;;;;;58.70;33.77;;;7.80;99.90;;;;;;4810907;29;20045;-83
2022/03/22 07:48:54;;;;;;;58.33;34.00;;;7.90;99.90;;;;;;4827654;29;20034;-84
2022/03/22 07:54:05;;;;;;;55.33;32.40;;;8.20;99.90;;;;;;4827276;29;20046;-84
2022/03/22 07:56:31;;;;;;;54.63;32.77;;;8.30;99.90;;;;;;4824339;29;20073;-84
2022/03/22 07:58:57;;;;;;;56.43;31.60;;;8.40;99.90;;;;;;4828965;29;20102;-84
2022/03/22 08:01:24;;;;;;;50.00;30.97;;;8.50;99.90;;;;;;4828740;29;20056;-84
2022/03/22 08:03:51;;;;;;;51.90;31.80;;;8.60;99.90;;;;;;4822424;29;20524;-85
2022/03/22 08:06:17;;;;;;;53.57;32.23;;;8.70;99.90;;;;;;4812564;29;20056;-85
2022/03/22 08:08:44;;;;;;;55.27;32.17;;;8.80;99.90;;;;;;4812454;29;20053;-85
2022/03/22 08:11:11;;;;;;;53.20;31.17;;;9.00;99.90;;;;;;4813353;29;20747;-84
2022/03/22 08:13:40;;;;;;;53.67;30.87;;;9.10;99.90;;;;;;4813349;29;20045;-85
2022/03/22 08:16:06;;;;;;;49.87;29.57;;;9.20;99.90;;;;;;4827636;29;20043;-85
2022/03/22 08:18:32;;;;;;;47.00;27.87;;;9.30;99.90;;;;;;4812819;29;21665;-85
2022/03/22 08:20:58;;;;;;;52.17;28.97;;;9.50;99.90;;;;;;4790987;29;20443;-85
2022/03/22 08:23:24;;;;;;;52.57;30.30;;;9.60;99.90;;;;;;4822801;29;20042;-85
2022/03/22 08:25:51;;;;;;;46.03;29.37;;;9.70;99.90;;;;;;4806615;29;20057;-85
2022/03/22 08:28:18;;;;;;;43.47;27.17;;;9.80;99.90;;;;;;4800628;29;20043;-85
2022/03/22 08:30:44;;;;;;;51.03;30.00;;;9.90;99.90;;;;;;4797646;29;20106;-85
2022/03/22 08:33:11;;;;;;;47.00;29.13;;;10.10;99.90;;;;;;4823721;29;20042;-85
2022/03/22 08:35:45;;;;;;;47.37;28.63;;;10.20;99.90;;;;;;4826982;29;20061;-85
2022/03/22 08:38:12;;;;;;;48.13;29.77;;;10.30;99.90;;;;;;4806241;29;20117;-85
2022/03/22 08:40:39;;;;;;;43.70;26.57;;;10.50;99.90;;;;;;4796983;29;20050;-85
2022/03/22 08:43:08;;;;;;;46.27;28.13;;;10.60;99.90;;;;;;4827186;29;20045;-84
2022/03/22 08:45:35;;;;;;;45.73;28.17;;;10.70;99.90;;;;;;4826766;29;20049;-85
2022/03/22 08:48:08;;;;;;;48.33;29.17;;;10.90;99.90;;;;;;4812920;29;20367;-84
2022/03/22 08:50:34;;;;;;;38.50;25.40;;;11.00;99.90;;;;;;4824645;29;20041;-85
2022/03/22 08:53:01;;;;;;;45.30;26.80;;;11.20;99.90;;;;;;4800975;29;20058;-85
2022/03/22 08:55:27;;;;;;;38.83;25.20;;;11.30;99.90;;;;;;4821713;29;20054;-84
2022/03/22 08:57:54;;;;;;;41.50;25.63;;;11.40;99.90;;;;;;4826596;29;20062;-85
2022/03/22 09:00:21;;;;;;;45.33;26.13;;;11.60;99.90;;;;;;4812847;29;20056;-84
2022/03/22 09:02:49;;;;;;;36.33;23.93;;;11.80;99.90;;;;;;4803998;29;20192;-84
2022/03/22 09:08:01;;;;;;;37.03;22.27;;;12.10;99.90;;;;;;4807989;29;20110;-85
2022/03/22 09:10:30;;;;;;;37.10;21.77;;;12.40;99.90;;;;;;4808250;29;20057;-83
2022/03/22 09:12:56;;;;;;;48.87;23.20;;;12.50;99.90;;;;;;4808933;29;20048;-85
2022/03/22 09:15:25;;;;;;;36.70;21.23;;;12.70;99.90;;;;;;4794140;29;20403;-85
2022/03/22 09:17:52;;;;;;;36.00;21.53;;;12.90;99.90;;;;;;4814506;29;20050;-84
2022/03/22 09:20:19;;;;;;;36.97;20.90;;;13.00;99.90;;;;;;4806480;29;20423;-84
2022/03/22 09:22:49;;;;;;;32.53;20.70;;;13.20;99.90;;;;;;4806449;29;20046;-84
2022/03/22 09:25:16;;;;;;;36.07;20.87;;;13.30;99.90;;;;;;4797843;29;20081;-84
2022/03/22 09:27:42;;;;;;;36.20;20.87;;;13.40;99.90;;;;;;4801426;29;20105;-84
2022/03/22 09:30:10;;;;;;;35.10;21.30;;;13.50;99.90;;;;;;4805081;29;20491;-84
2022/03/22 09:32:37;;;;;;;38.23;21.57;;;13.60;99.90;;;;;;4800395;29;20060;-85
2022/03/22 09:35:06;;;;;;;36.20;21.13;;;13.70;99.90;;;;;;4789139;29;20515;-85
2022/03/22 09:37:33;;;;;;;36.53;21.60;;;13.70;99.90;;;;;;4805397;29;20053;-85
2022/03/22 09:39:59;;;;;;;32.37;21.60;;;13.80;99.90;;;;;;4793382;29;20121;-85
2022/03/22 09:42:27;;;;;;;40.67;23.07;;;13.90;99.90;;;;;;4809287;29;20209;-85
2022/03/22 09:44:53;;;;;;;37.10;21.93;;;14.00;99.90;;;;;;4807239;29;20666;-85
2022/03/22 09:47:20;;;;;;;35.37;21.67;;;14.00;98.20;;;;;;4792541;29;20053;-85
2022/03/22 09:49:45;;;;;;;35.47;21.10;;;14.10;97.40;;;;;;4792391;29;20142;-85
2022/03/22 09:52:12;;;;;;;32.37;21.87;;;14.20;99.90;;;;;;4795757;29;20099;-85
2022/03/22 09:54:41;;;;;;;33.67;21.00;;;14.30;98.60;;;;;;4782866;29;20133;-84
2022/03/22 09:57:07;;;;;;;37.20;22.07;;;14.50;95.80;;;;;;4814863;29;20057;-84
2022/03/22 09:59:36;;;;;;;37.30;21.10;;;14.60;93.20;;;;;;4809949;29;20105;-84
2022/03/22 10:02:06;;;;;;;34.20;21.00;;;14.70;92.80;;;;;;4821302;29;20171;-85
2022/03/22 10:04:40;;;;;;;37.07;20.63;;;14.70;90.30;;;;;;4820150;29;20410;-84
2022/03/22 10:07:07;;;;;;;35.47;21.33;;;14.90;86.50;;;;;;4810105;29;20056;-84
2022/03/22 10:09:39;;;;;;;35.17;21.57;;;15.00;89.10;;;;;;4825269;29;20128;-85
2022/03/22 10:12:10;;;;;;;37.30;19.98;;;15.10;86.30;;;;;;4810731;29;20049;-85
2022/03/22 10:14:39;;;;;;;32.97;20.80;;;15.20;85.20;;;;;;4840465;29;20545;-85
2022/03/22 10:17:19;;;;;;;32.17;20.60;;;15.30;85.30;;;;;;4826310;29;20498;-85
2022/03/22 10:19:47;;;;;;;33.83;21.67;;;15.40;77.30;;;;;;4810331;29;20053;-84
2022/03/22 10:22:14;;;;;;;31.43;19.83;;;15.50;80.30;;;;;;4826456;29;20042;-84
2022/03/22 10:24:47;;;;;;;37.60;22.23;;;15.60;82.40;;;;;;4840463;29;20105;-83
2022/03/22 10:27:27;;;;;;;34.47;20.97;;;15.70;79.60;;;;;;4825360;29;20758;-84
2022/03/22 10:29:56;;;;;;;37.23;21.40;;;15.80;75.70;;;;;;4806607;29;20838;-84
2022/03/22 10:32:34;;;;;;;34.10;21.33;;;15.90;75.50;;;;;;4824685;29;20402;-84
2022/03/22 10:35:20;;;;;;;34.92;21.25;;;16.00;75.60;;;;;;4809796;29;20050;-85
2022/03/22 10:37:50;;;;;;;36.30;20.58;;;16.10;73.30;;;;;;4841195;29;20049;-84
2022/03/22 10:40:29;;;;;;;27.55;19.65;;;16.20;75.20;;;;;;4812776;29;20086;-84
2022/03/22 10:43:03;;;;;;;36.67;21.08;;;16.30;73.50;;;;;;4809168;29;20038;-84
2022/03/22 10:45:40;;;;;;;32.53;20.90;;;16.40;73.60;;;;;;4825013;29;20042;-84
2022/03/22 10:48:06;;;;;;;30.90;19.08;;;16.50;72.80;;;;;;4822596;29;20073;-83
2022/03/22 10:50:38;;;;;;;46.50;31.88;;;16.60;72.60;;;;;;4824793;29;20093;-84
2022/03/22 10:53:05;;;;;;;35.45;21.67;;;16.80;70.90;;;;;;4810309;29;20038;-84
2022/03/22 10:55:31;;;;;;;33.90;21.30;;;16.80;71.10;;;;;;4809045;29;20053;-84
2022/03/22 10:57:59;;;;;;;32.05;21.02;;;16.90;70.50;;;;;;4820775;29;20503;-85
2022/03/22 11:00:26;;;;;;;36.30;20.45;;;17.00;70.50;;;;;;4792829;29;20055;-85
2022/03/22 11:02:53;;;;;;;34.47;20.98;;;17.10;70.30;;;;;;4802865;29;20391;-83
2022/03/22 11:05:22;;;;;;;37.33;21.52;;;17.20;68.80;;;;;;4803008;29;20403;-84
2022/03/22 11:07:52;;;;;;;32.28;19.98;;;17.30;67.60;;;;;;4836123;29;20054;-85
2022/03/22 11:10:25;;;;;;;43.60;21.83;;;17.40;67.90;;;;;;4806570;29;20051;-84
2022/03/22 11:12:52;;;;;;;35.95;22.13;;;17.40;68.40;;;;;;4836579;29;20542;-84
2022/03/22 11:15:18;;;;;;;35.45;23.27;;;17.40;67.60;;;;;;4793463;29;20427;-84
2022/03/22 11:17:48;;;;;;;34.03;21.23;;;17.50;67.00;;;;;;4791217;29;20053;-83
2022/03/22 11:20:15;;;;;;;37.55;22.05;;;17.50;66.10;;;;;;4806076;29;20043;-84
2022/03/22 11:23:00;;;;;;;35.25;20.70;;;17.60;65.40;;;;;;4791224;29;20103;-84
2022/03/22 11:25:34;;;;;;;36.45;21.85;;;17.70;63.90;;;;;;4805691;29;20089;-84
2022/03/22 11:28:11;;;;;;;33.45;20.90;;;17.70;64.20;;;;;;4803346;29;20482;-84
2022/03/22 11:30:40;;;;;;;36.88;21.50;;;17.90;62.70;;;;;;4809031;29;20537;-84
2022/03/22 11:36:16;;;;;;;37.75;20.77;;;18.00;63.50;;;;;;4822043;29;20050;-84
2022/03/22 11:38:51;;;;;;;38.00;20.67;;;18.10;62.10;;;;;;4806281;29;20115;-84
2022/03/22 11:44:23;;;;;;;33.40;20.48;;;18.20;61.80;;;;;;4805676;29;20488;-84
2022/03/22 11:47:16;;;;;;;33.97;19.15;;;18.30;61.10;;;;;;4791474;29;20483;-84
2022/03/22 11:50:04;;;;;;;31.92;19.40;;;18.30;59.90;;;;;;4804670;29;20121;-84
2022/03/22 11:52:40;;;;;;;37.72;20.42;;;18.40;59.20;;;;;;4773105;29;20125;-85
2022/03/22 11:55:18;;;;;;;35.05;20.00;;;18.40;59.90;;;;;;4803386;29;20763;-84
2022/03/22 11:57:48;;;;;;;35.20;20.85;;;18.40;60.70;;;;;;4808136;29;20469;-84
2022/03/22 12:00:17;;;;;;;37.47;21.13;;;18.40;59.60;;;;;;4837760;29;20054;-85
2022/03/22 12:02:47;;;;;;;31.58;19.85;;;18.50;59.90;;;;;;4808516;29;20589;-84
2022/03/22 12:05:17;;;;;;;33.03;19.83;;;18.50;60.00;;;;;;4808904;29;20060;-85
2022/03/22 12:07:43;;;;;;;34.30;21.70;;;18.60;60.30;;;;;;4822917;29;20061;-84
2022/03/22 12:10:12;;;;;;;32.28;20.63;;;18.60;59.50;;;;;;4809258;29;20050;-84
2022/03/22 12:12:48;;;;;;;33.05;20.35;;;18.60;59.80;;;;;;4811929;29;20087;-84
2022/03/22 12:15:16;;;;;;;32.35;20.35;;;18.70;59.60;;;;;;4812231;29;20046;-84
2022/03/22 12:17:42;;;;;;;35.55;20.83;;;18.70;59.20;;;;;;4811943;29;20046;-84
2022/03/22 12:20:13;;;;;;;36.80;21.08;;;18.70;59.20;;;;;;4826886;29;20128;-84
2022/03/22 12:22:41;;;;;;;33.42;19.90;;;18.80;59.30;;;;;;4812255;29;20815;-85
2022/03/22 12:25:17;;;;;;;32.67;21.10;;;18.90;59.50;;;;;;4821466;29;20130;-85
2022/03/22 12:27:57;;;;;;;37.65;19.83;;;19.00;58.80;;;;;;4823690;29;20066;-84
2022/03/22 12:30:30;;;;;;;34.78;21.17;;;19.10;58.30;;;;;;4826808;29;20046;-84
2022/03/22 12:32:58;;;;;;;31.77;20.48;;;19.20;58.40;;;;;;4843199;29;20509;-87
2022/03/22 12:35:25;;;;;;;35.65;19.67;;;19.20;58.60;;;;;;4811387;29;20138;-84
2022/03/22 12:37:54;;;;;;;35.60;20.80;;;19.30;58.30;;;;;;4826952;29;20045;-85
2022/03/22 12:40:21;;;;;;;36.15;20.35;;;19.30;56.90;;;;;;4842210;29;20046;-84
2022/03/22 12:42:50;;;;;;;36.55;20.45;;;19.30;58.00;;;;;;4826601;29;20050;-84
2022/03/22 12:45:18;;;;;;;34.53;21.58;;;19.30;58.20;;;;;;4810517;29;20226;-84
2022/03/22 12:47:44;;;;;;;41.20;21.17;;;19.20;58.00;;;;;;4819374;29;20514;-84
2022/03/22 12:50:12;;;;;;;31.08;19.83;;;19.20;57.70;;;;;;4816043;29;20050;-84
2022/03/22 12:52:40;;;;;;;34.97;20.48;;;19.30;57.80;;;;;;4816479;29;20061;-85
2022/03/22 12:55:08;;;;;;;35.67;20.05;;;19.30;57.70;;;;;;4826194;29;20048;-85
2022/03/22 12:57:37;;;;;;;37.47;20.45;;;19.30;57.30;;;;;;4825840;29;20061;-85
2022/03/22 13:00:06;;;;;;;31.65;19.63;;;19.30;57.40;;;;;;4840397;29;20049;-84
2022/03/22 13:02:32;;;;;;;35.53;21.52;;;19.30;56.70;;;;;;4809917;29;20419;-85
2022/03/22 13:04:57;;;;;;;33.45;19.55;;;19.30;57.30;;;;;;4827006;29;20050;-84
2022/03/22 13:07:25;;;;;;;36.38;19.80;;;19.40;57.60;;;;;;4824261;29;20054;-84
2022/03/22 13:12:38;;;;;;;32.95;19.35;;;19.50;55.90;;;;;;4827292;29;20053;-85